createdAt,value
2019-03-04T00:02:21.222Z,10.44
2019-03-04T00:05:26.673Z,10.51
2019-03-04T00:08:32.967Z,10.59
2019-03-04T00:11:42.845Z,10.56
2019-03-04T00:14:46.892Z,10.71
2019-03-04T00:17:55.717Z,10.68
2019-03-04T00:21:01.048Z,10.66
2019-03-04T00:24:06.331Z,10.74
2019-03-04T00:27:12.197Z,10.81
2019-03-04T00:30:18.332Z,10.82
2019-03-04T00:33:24.593Z,10.86
2019-03-04T00:36:29.838Z,10.90
2019-03-04T00:39:35.082Z,10.96
2019-03-04T00:42:41.822Z,11.01
2019-03-04T00:49:05.477Z,11.00
2019-03-04T00:52:10.966Z,11.15
2019-03-04T00:55:16.357Z,11.07
2019-03-04T00:58:21.612Z,11.05
2019-03-04T01:01:26.862Z,10.96
2019-03-04T01:04:32.100Z,11.01
2019-03-04T01:07:37.362Z,11.22
2019-03-04T01:10:42.647Z,11.13
2019-03-04T01:13:47.930Z,11.09
2019-03-04T01:16:53.136Z,11.13
2019-03-04T01:20:00.890Z,11.17
2019-03-04T01:23:05.545Z,11.11
2019-03-04T01:26:13.112Z,11.24
2019-03-04T01:29:18.372Z,11.37
2019-03-04T01:32:23.609Z,11.43
2019-03-04T01:35:29.045Z,11.40
2019-03-04T01:38:34.326Z,11.25
2019-03-04T01:41:39.619Z,11.20
2019-03-04T01:44:44.883Z,11.19
2019-03-04T01:47:50.211Z,11.29
2019-03-04T01:50:55.462Z,11.37
2019-03-04T01:54:00.765Z,11.30
2019-03-04T01:57:06.196Z,11.32
2019-03-04T02:00:14.274Z,11.34
2019-03-04T02:03:19.556Z,11.30
2019-03-04T02:06:24.901Z,11.43
2019-03-04T02:09:30.178Z,11.41
2019-03-04T02:12:35.472Z,11.40
2019-03-04T02:15:42.277Z,11.38
2019-03-04T02:18:50.096Z,11.36
2019-03-04T02:21:55.333Z,11.28
2019-03-04T02:25:00.662Z,11.37
2019-03-04T02:28:05.925Z,11.41
2019-03-04T02:31:11.297Z,11.56
2019-03-04T02:34:16.667Z,11.52
2019-03-04T02:37:22.002Z,11.43
2019-03-04T02:40:27.327Z,11.56
2019-03-04T02:43:32.530Z,11.47
2019-03-04T02:46:37.808Z,11.52
2019-03-04T02:49:43.123Z,11.62
2019-03-04T02:52:48.428Z,11.58
2019-03-04T02:55:53.691Z,11.62
2019-03-04T02:58:58.992Z,11.64
2019-03-04T03:02:06.057Z,11.61
2019-03-04T03:05:11.421Z,11.63
2019-03-04T03:08:16.819Z,11.68
2019-03-04T03:11:22.106Z,11.56
2019-03-04T03:14:27.534Z,11.47
2019-03-04T03:17:32.789Z,11.54
2019-03-04T03:20:38.120Z,11.61
2019-03-04T03:23:43.428Z,11.47
2019-03-04T03:26:48.695Z,11.62
2019-03-04T03:29:55.025Z,11.56
2019-03-04T03:33:00.347Z,11.54
2019-03-04T03:36:05.687Z,11.42
2019-03-04T03:39:11.100Z,11.52
2019-03-04T03:42:18.833Z,11.41
2019-03-04T03:45:23.389Z,11.42
2019-03-04T03:48:28.756Z,11.40
2019-03-04T03:51:35.026Z,11.33
2019-03-04T03:54:40.330Z,11.33
2019-03-04T03:57:45.743Z,11.39
2019-03-04T04:00:51.069Z,11.46
2019-03-04T04:03:57.916Z,11.40
2019-03-04T04:07:03.117Z,11.36
2019-03-04T04:10:10.185Z,11.23
2019-03-04T04:13:15.486Z,11.23
2019-03-04T04:16:20.781Z,11.32
2019-03-04T04:19:26.043Z,11.40
2019-03-04T04:22:31.377Z,11.22
2019-03-04T04:25:36.609Z,11.27
2019-03-04T04:28:41.858Z,11.18
2019-03-04T04:31:47.117Z,11.24
2019-03-04T04:34:52.348Z,11.28
2019-03-04T04:37:57.671Z,11.43
2019-03-04T04:41:02.956Z,11.32
2019-03-04T04:44:08.582Z,11.26
2019-03-04T04:47:13.835Z,11.33
2019-03-04T04:50:19.156Z,11.28
2019-03-04T04:53:24.410Z,11.37
2019-03-04T04:56:29.625Z,11.49
2019-03-04T04:59:34.882Z,11.40
2019-03-04T05:02:40.174Z,11.22
2019-03-04T05:05:45.425Z,11.25
2019-03-04T05:08:50.751Z,11.17
2019-03-04T05:11:56.589Z,11.22
2019-03-04T05:15:01.852Z,11.47
2019-03-04T05:18:07.156Z,11.55
2019-03-04T05:21:12.403Z,11.47
2019-03-04T05:24:17.790Z,11.42
2019-03-04T05:27:26.166Z,11.48
2019-03-04T05:30:31.515Z,11.63
2019-03-04T05:33:36.865Z,11.75
2019-03-04T05:36:42.137Z,11.87
2019-03-04T05:39:47.467Z,11.81
2019-03-04T05:42:52.991Z,11.88
2019-03-04T05:45:58.413Z,11.87
2019-03-04T05:49:03.751Z,12.06
2019-03-04T05:52:08.972Z,11.93
2019-03-04T05:55:14.259Z,12.03
2019-03-04T05:58:19.523Z,11.97
2019-03-04T06:01:36.364Z,11.97
2019-03-04T06:04:43.557Z,12.03
2019-03-04T06:07:54.758Z,12.05
2019-03-04T06:11:00.151Z,12.02
2019-03-04T06:14:06.005Z,11.99
2019-03-04T06:17:11.236Z,11.97
2019-03-04T06:20:17.071Z,12.06
2019-03-04T06:23:22.416Z,12.18
2019-03-04T06:26:27.787Z,12.19
2019-03-04T06:29:35.892Z,12.21
2019-03-04T06:32:40.015Z,12.15
2019-03-04T06:35:47.946Z,12.32
2019-03-04T06:38:53.189Z,12.36
2019-03-04T06:41:58.470Z,12.26
2019-03-04T06:45:03.795Z,12.30
2019-03-04T06:48:09.149Z,12.26
2019-03-04T06:51:23.027Z,12.23
2019-03-04T06:55:01.965Z,12.25
2019-03-04T06:58:07.297Z,12.19
2019-03-04T07:01:16.422Z,12.23
2019-03-04T07:04:29.997Z,12.36
2019-03-04T07:07:35.321Z,12.41
2019-03-04T07:10:40.715Z,12.41
2019-03-04T07:13:45.971Z,12.30
2019-03-04T07:16:52.248Z,12.35
2019-03-04T07:20:10.012Z,12.43
2019-03-04T07:23:15.307Z,12.45
2019-03-04T07:26:20.628Z,12.45
2019-03-04T07:29:26.901Z,12.33
2019-03-04T07:32:32.220Z,12.35
2019-03-04T07:35:37.482Z,11.82
2019-03-04T07:38:45.249Z,9.89
2019-03-04T07:41:52.191Z,7.93
2019-03-04T07:44:57.431Z,7.58
2019-03-04T07:48:02.717Z,7.45
2019-03-04T07:51:12.627Z,7.42
2019-03-04T07:54:17.886Z,7.39
2019-03-04T07:57:23.145Z,7.44
2019-03-04T08:00:28.381Z,7.43
2019-03-04T08:03:33.610Z,7.50
2019-03-04T08:06:40.002Z,7.59
2019-03-04T08:10:15.974Z,7.67
2019-03-04T08:13:27.791Z,7.64
2019-03-04T08:16:33.096Z,7.79
2019-03-04T08:19:38.331Z,7.73
2019-03-04T08:22:43.555Z,7.81
2019-03-04T08:25:48.779Z,7.81
2019-03-04T08:28:54.037Z,7.76
2019-03-04T08:31:59.329Z,8.01
2019-03-04T08:35:05.034Z,8.07
2019-03-04T08:38:10.262Z,8.11
2019-03-04T08:41:15.454Z,8.07
2019-03-04T08:44:20.700Z,8.11
2019-03-04T08:47:25.953Z,8.33
2019-03-04T08:50:31.207Z,8.74
2019-03-04T08:53:36.450Z,8.88
2019-03-04T08:56:41.686Z,9.04
2019-03-04T08:59:46.957Z,9.04
2019-03-04T09:02:52.259Z,9.09
2019-03-04T09:05:57.550Z,9.15
2019-03-04T09:09:02.991Z,9.29
2019-03-04T09:12:09.894Z,9.57
2019-03-04T09:15:16.557Z,9.75
2019-03-04T09:18:23.410Z,9.80
2019-03-04T09:21:28.734Z,9.88
2019-03-04T09:24:34.079Z,9.80
2019-03-04T09:27:39.500Z,9.48
2019-03-04T09:30:44.910Z,9.48
2019-03-04T09:33:50.157Z,9.65
2019-03-04T09:36:57.514Z,9.94
2019-03-04T09:40:02.820Z,10.06
2019-03-04T09:43:08.281Z,10.13
2019-03-04T09:46:13.563Z,10.45
2019-03-04T09:49:18.811Z,10.67
2019-03-04T09:52:24.141Z,10.70
2019-03-04T09:55:29.498Z,10.67
2019-03-04T09:58:34.833Z,11.14
2019-03-04T10:01:47.245Z,11.24
2019-03-04T10:05:22.669Z,10.94
2019-03-04T10:08:57.651Z,10.80
2019-03-04T10:12:43.674Z,11.25
2019-03-04T10:16:32.687Z,11.36
2019-03-04T10:20:08.621Z,11.69
2019-03-04T10:23:32.576Z,11.38
2019-03-04T10:27:06.401Z,11.26
2019-03-04T10:30:44.364Z,11.33
2019-03-04T10:34:40.669Z,10.87
2019-03-04T10:38:08.454Z,10.89
2019-03-04T10:41:47.950Z,11.02
2019-03-04T10:45:32.804Z,10.90
2019-03-04T10:48:38.142Z,10.92
2019-03-04T10:51:43.405Z,11.03
2019-03-04T10:54:48.625Z,11.26
2019-03-04T10:57:53.890Z,11.42
2019-03-04T11:00:59.231Z,11.34
2019-03-04T11:04:04.999Z,10.92
2019-03-04T11:07:10.436Z,10.43
2019-03-04T11:10:15.667Z,9.68
2019-03-04T11:13:20.994Z,8.90
2019-03-04T11:16:26.334Z,8.50
2019-03-04T11:19:31.626Z,8.55
2019-03-04T11:22:36.911Z,8.66
2019-03-04T11:25:42.326Z,8.58
2019-03-04T11:28:47.607Z,8.92
2019-03-04T11:31:52.874Z,9.16
2019-03-04T11:34:58.188Z,9.14
2019-03-04T11:38:05.956Z,9.09
2019-03-04T11:41:14.088Z,9.36
2019-03-04T11:44:19.312Z,9.48
2019-03-04T11:47:26.406Z,9.53
2019-03-04T11:50:31.609Z,9.81
2019-03-04T11:53:36.859Z,9.90
2019-03-04T11:56:42.153Z,10.14
2019-03-04T11:59:47.401Z,10.04
2019-03-04T12:02:52.728Z,10.27
2019-03-04T12:05:58.019Z,9.88
2019-03-04T12:09:05.095Z,9.52
2019-03-04T12:12:11.870Z,8.45
2019-03-04T12:15:17.685Z,6.22
2019-03-04T12:18:23.024Z,5.89
2019-03-04T12:21:28.326Z,5.81
2019-03-04T12:24:33.560Z,5.84
2019-03-04T12:27:45.878Z,5.82
2019-03-04T12:30:51.233Z,5.71
2019-03-04T12:33:56.534Z,5.67
2019-03-04T12:37:01.835Z,5.67
2019-03-04T12:40:09.979Z,5.68
2019-03-04T12:43:15.391Z,5.70
2019-03-04T12:46:20.654Z,5.81
2019-03-04T12:49:26.049Z,5.93
2019-03-04T12:52:31.361Z,6.09
2019-03-04T12:55:39.305Z,6.14
2019-03-04T12:58:44.610Z,6.10
2019-03-04T13:01:50.035Z,6.23
2019-03-04T13:04:55.418Z,6.42
2019-03-04T13:08:03.735Z,6.68
2019-03-04T13:11:09.079Z,6.90
2019-03-04T13:14:14.388Z,7.13
2019-03-04T13:17:19.653Z,7.19
2019-03-04T13:20:24.994Z,7.49
2019-03-04T13:23:30.298Z,7.44
2019-03-04T13:26:35.570Z,7.33
2019-03-04T13:29:40.928Z,7.10
2019-03-04T13:32:46.240Z,7.09
2019-03-04T13:35:51.535Z,7.41
2019-03-04T13:38:57.133Z,7.47
2019-03-04T13:42:02.400Z,7.59
2019-03-04T13:45:09.599Z,7.74
2019-03-04T13:48:16.478Z,7.52
2019-03-04T13:51:21.790Z,7.40
2019-03-04T13:54:27.227Z,7.29
2019-03-04T13:57:32.520Z,7.16
2019-03-04T14:00:37.994Z,7.11
2019-03-04T14:03:43.216Z,7.17
2019-03-04T14:06:48.489Z,7.09
2019-03-04T14:09:53.820Z,7.22
2019-03-04T14:12:59.068Z,7.22
2019-03-04T14:16:04.848Z,7.33
2019-03-04T14:19:10.084Z,7.57
2019-03-04T14:22:15.352Z,7.65
2019-03-04T14:25:20.614Z,7.72
2019-03-04T14:28:28.162Z,7.65
2019-03-04T14:31:32.927Z,7.61
2019-03-04T14:34:38.209Z,7.44
2019-03-04T14:37:43.531Z,7.49
2019-03-04T14:40:48.818Z,7.42
2019-03-04T14:43:54.153Z,7.39
2019-03-04T14:47:01.102Z,7.45
2019-03-04T14:50:10.171Z,7.62
2019-03-04T14:53:15.415Z,7.71
2019-03-04T14:56:22.625Z,7.72
2019-03-04T14:59:27.669Z,7.62
2019-03-04T15:02:32.863Z,7.65
2019-03-04T15:05:38.130Z,7.76
2019-03-04T15:08:43.418Z,7.65
2019-03-04T15:11:48.693Z,7.72
2019-03-04T15:14:54.005Z,7.69
2019-03-04T15:17:59.373Z,7.73
2019-03-04T15:21:05.029Z,7.71
2019-03-04T15:24:10.328Z,7.65
2019-03-04T15:27:15.574Z,7.60
2019-03-04T15:30:20.924Z,7.69
2019-03-04T15:33:26.206Z,7.64
2019-03-04T15:36:31.426Z,7.62
2019-03-04T15:39:36.762Z,7.46
2019-03-04T15:42:43.726Z,7.47
2019-03-04T15:45:51.323Z,7.47
2019-03-04T15:48:57.656Z,7.41
2019-03-04T15:52:03.057Z,7.50
2019-03-04T15:55:09.708Z,7.58
2019-03-04T15:58:15.179Z,7.47
2019-03-04T16:01:20.592Z,7.46
2019-03-04T16:04:45.018Z,7.49
2019-03-04T16:07:50.379Z,7.54
2019-03-04T16:10:55.789Z,7.54
2019-03-04T16:14:01.172Z,7.61
2019-03-04T16:17:08.565Z,7.65
2019-03-04T16:20:16.463Z,7.62
2019-03-04T16:23:23.352Z,7.54
2019-03-04T16:26:28.572Z,7.48
2019-03-04T16:29:37.186Z,7.46
2019-03-04T16:32:40.959Z,7.46
2019-03-04T16:35:46.387Z,7.45
2019-03-04T16:38:51.854Z,7.49
2019-03-04T16:41:57.199Z,7.37
2019-03-04T16:45:02.423Z,7.14
2019-03-04T16:48:07.770Z,7.05
2019-03-04T16:51:13.046Z,6.96
2019-03-04T16:54:18.504Z,6.85
2019-03-04T16:57:23.773Z,6.76
2019-03-04T17:00:29.083Z,6.78
2019-03-04T17:03:34.400Z,6.67
2019-03-04T17:06:39.687Z,6.64
2019-03-04T17:09:44.998Z,6.57
2019-03-04T17:12:50.242Z,6.72
2019-03-04T17:15:55.505Z,6.69
2019-03-04T17:19:00.759Z,6.73
2019-03-04T17:22:06.114Z,6.69
2019-03-04T17:25:12.913Z,6.68
2019-03-04T17:28:18.382Z,6.73
2019-03-04T17:31:44.118Z,6.81
2019-03-04T17:34:49.536Z,6.65
2019-03-04T17:37:56.004Z,6.74
2019-03-04T17:41:01.323Z,6.73
2019-03-04T17:44:06.562Z,6.69
2019-03-04T17:47:11.835Z,6.78
2019-03-04T17:50:21.440Z,6.66
2019-03-04T17:53:26.714Z,6.74
2019-03-04T17:56:31.978Z,6.54
2019-03-04T17:59:37.233Z,6.52
2019-03-04T18:02:42.603Z,6.61
2019-03-04T18:05:47.858Z,6.59
2019-03-04T18:08:53.168Z,6.46
2019-03-04T18:11:58.385Z,6.44
2019-03-04T18:15:03.897Z,6.51
2019-03-04T18:18:09.120Z,6.52
2019-03-04T18:21:14.478Z,6.50
2019-03-04T18:24:26.121Z,6.52
2019-03-04T18:27:34.577Z,6.54
2019-03-04T18:31:00.585Z,6.46
2019-03-04T18:34:42.667Z,6.42
2019-03-04T18:38:26.124Z,6.33
2019-03-04T18:42:11.010Z,6.24
2019-03-04T18:45:40.973Z,6.11
2019-03-04T18:48:56.799Z,6.23
2019-03-04T18:52:02.073Z,6.10
2019-03-04T18:55:07.801Z,5.97
2019-03-04T18:58:13.894Z,6.00
2019-03-04T19:01:19.163Z,5.86
2019-03-04T19:04:24.442Z,5.81
2019-03-04T19:07:29.707Z,5.75
2019-03-04T19:10:35.090Z,5.71
2019-03-04T19:13:40.368Z,5.80
2019-03-04T19:16:45.737Z,5.67
2019-03-04T19:19:51.067Z,5.57
2019-03-04T19:22:56.855Z,5.66
2019-03-04T19:26:02.367Z,5.57
2019-03-04T19:29:07.793Z,5.57
2019-03-04T19:32:13.231Z,5.55
2019-03-04T19:35:18.686Z,5.75
2019-03-04T19:38:23.959Z,5.94
2019-03-04T19:41:29.269Z,5.90
2019-03-04T19:44:36.141Z,5.94
2019-03-04T19:47:47.221Z,5.98
2019-03-04T19:50:52.467Z,6.00
2019-03-04T19:53:57.756Z,5.89
2019-03-04T19:57:03.044Z,5.94
2019-03-04T20:00:11.046Z,5.97
2019-03-04T20:03:16.557Z,5.94
2019-03-04T20:06:21.918Z,5.94
2019-03-04T20:09:27.253Z,5.70
2019-03-04T20:12:32.582Z,5.75
2019-03-04T20:15:37.922Z,5.56
2019-03-04T20:18:43.274Z,5.61
2019-03-04T20:21:48.702Z,5.61
2019-03-04T20:24:54.869Z,5.57
2019-03-04T20:28:01.937Z,5.59
2019-03-04T20:31:09.423Z,5.66
2019-03-04T20:34:14.831Z,5.59
2019-03-04T20:37:20.338Z,5.50
2019-03-04T20:40:26.058Z,5.48
2019-03-04T20:43:31.635Z,5.47
2019-03-04T20:46:37.054Z,5.45
2019-03-04T20:49:42.473Z,5.52
2019-03-04T20:52:49.389Z,5.48
2019-03-04T20:55:54.658Z,5.42
2019-03-04T20:59:00.113Z,5.51
2019-03-04T21:02:05.774Z,5.57
2019-03-04T21:05:12.044Z,5.68
2019-03-04T21:08:22.091Z,5.68
2019-03-04T21:11:24.439Z,5.80
2019-03-04T21:14:33.208Z,5.96
2019-03-04T21:17:38.487Z,5.92
2019-03-04T21:20:44.009Z,5.91
2019-03-04T21:23:49.381Z,5.94
2019-03-04T21:26:54.681Z,5.83
2019-03-04T21:30:48.477Z,5.76
2019-03-04T21:34:37.982Z,5.79
2019-03-04T21:37:48.241Z,5.83
2019-03-04T21:41:23.446Z,5.68
2019-03-04T21:45:01.727Z,5.72
2019-03-04T21:48:11.086Z,5.70
2019-03-04T21:51:53.304Z,5.79
2019-03-04T21:54:58.698Z,5.76
2019-03-04T21:58:03.953Z,5.70
2019-03-04T22:01:18.707Z,5.64
2019-03-04T22:04:25.513Z,5.78
2019-03-04T22:07:30.890Z,5.85
2019-03-04T22:10:38.423Z,5.68
2019-03-04T22:13:43.799Z,5.63
2019-03-04T22:16:49.113Z,5.60
2019-03-04T22:19:54.448Z,5.57
2019-03-04T22:22:59.751Z,5.41
2019-03-04T22:26:05.112Z,5.38
2019-03-04T22:29:10.446Z,5.27
2019-03-04T22:32:15.932Z,5.41
2019-03-04T22:35:21.290Z,5.45
2019-03-04T22:38:26.622Z,5.66
2019-03-04T22:41:31.939Z,5.66
2019-03-04T22:44:38.303Z,5.84
2019-03-04T22:47:43.868Z,5.86
2019-03-04T22:50:49.184Z,5.92
2019-03-04T22:53:56.042Z,5.80
2019-03-04T22:57:02.691Z,5.85
2019-03-04T23:00:50.680Z,5.93
2019-03-04T23:04:09.134Z,5.99
2019-03-04T23:07:31.920Z,6.05
2019-03-04T23:10:44.196Z,6.07
2019-03-04T23:14:14.214Z,6.14
2019-03-04T23:17:19.452Z,6.17
2019-03-04T23:20:24.695Z,6.15
2019-03-04T23:23:30.106Z,6.14
2019-03-04T23:26:35.446Z,6.06
2019-03-04T23:29:40.667Z,5.97
2019-03-04T23:32:45.945Z,5.91
2019-03-04T23:35:51.249Z,5.90
2019-03-04T23:38:56.510Z,5.92
2019-03-04T23:42:01.725Z,5.75
2019-03-04T23:45:09.840Z,5.64
2019-03-04T23:48:15.257Z,5.59
2019-03-04T23:51:20.506Z,5.53
2019-03-04T23:54:32.925Z,5.53
2019-03-04T23:57:38.167Z,5.40
